Time;durP1;ratioP1;P1;durP2;ratioP2;P2;SDS_P1;SDS_P2;PMS_P1;PMS_P2;Temp;Humidity;BMP_temperature;BMP_pressure;BME280_temperature;BME280_humidity;BME280_pressure;Samples;Min_cycle;Max_cycle;Signal;HPM_P1;HPM_P2
2023/04/27 00:00:38;;;;;;;6.07;3.42;;;6.30;64.30;;;;;;5087087;28;20162;-76
2023/04/27 00:03:04;;;;;;;7.15;4.07;;;6.20;64.30;;;;;;5069668;28;20187;-75
2023/04/27 00:05:37;;;;;;;5.07;3.17;;;6.20;64.20;;;;;;5087393;28;20040;-75
2023/04/27 00:08:07;;;;;;;4.55;3.30;;;6.20;64.30;;;;;;5070049;28;20043;-75
2023/04/27 00:10:33;;;;;;;6.57;3.55;;;6.20;64.30;;;;;;5087419;28;20043;-75
2023/04/27 00:12:59;;;;;;;5.32;3.38;;;6.20;64.30;;;;;;5086745;28;20499;-75
2023/04/27 00:15:25;;;;;;;5.07;3.50;;;6.10;64.20;;;;;;5086967;28;20050;-75
2023/04/27 00:17:50;;;;;;;4.55;3.33;;;6.10;64.00;;;;;;5086581;28;20044;-75
2023/04/27 00:20:17;;;;;;;4.38;3.20;;;6.10;63.90;;;;;;5069234;28;20068;-74
2023/04/27 00:22:43;;;;;;;5.07;3.47;;;6.10;64.10;;;;;;5069176;28;20047;-75
2023/04/27 00:25:09;;;;;;;4.78;3.22;;;6.00;64.10;;;;;;5086194;28;20119;-76
2023/04/27 00:27:35;;;;;;;6.97;3.58;;;6.00;64.20;;;;;;5065786;28;20079;-75
2023/04/27 00:30:00;;;;;;;4.10;2.92;;;6.00;64.30;;;;;;5092013;28;20093;-75
2023/04/27 00:32:26;;;;;;;4.65;3.08;;;6.00;64.50;;;;;;5091802;28;20492;-75
2023/04/27 00:34:52;;;;;;;4.82;3.30;;;6.00;64.60;;;;;;5074183;28;20035;-74
2023/04/27 00:37:18;;;;;;;5.13;3.45;;;6.00;64.70;;;;;;5091838;28;20431;-75
2023/04/27 00:39:44;;;;;;;6.10;3.45;;;5.90;64.60;;;;;;5075129;28;20040;-75
2023/04/27 00:42:14;;;;;;;4.80;3.10;;;5.90;64.70;;;;;;5092659;28;20047;-74
2023/04/27 00:44:39;;;;;;;3.78;2.88;;;5.90;64.80;;;;;;5078019;28;20077;-74
2023/04/27 00:47:05;;;;;;;4.55;2.67;;;5.90;64.90;;;;;;5075948;28;20052;-74
2023/04/27 00:49:31;;;;;;;5.38;3.25;;;5.90;64.90;;;;;;5092024;28;20047;-75
2023/04/27 00:51:57;;;;;;;4.97;2.88;;;5.90;65.00;;;;;;5091043;28;20082;-72
2023/04/27 00:54:24;;;;;;;4.97;3.10;;;5.90;65.00;;;;;;5091111;28;20047;-72
2023/04/27 00:56:50;;;;;;;3.72;2.80;;;5.80;64.90;;;;;;5090825;28;20044;-71
2023/04/27 00:59:17;;;;;;;4.75;3.20;;;5.80;65.00;;;;;;5090992;28;20503;-72
2023/04/27 01:01:44;;;;;;;3.92;3.17;;;5.80;65.00;;;;;;5091295;28;20480;-72
2023/04/27 01:04:09;;;;;;;3.65;2.90;;;5.80;65.10;;;;;;5091333;28;20112;-72
2023/04/27 01:06:35;;;;;;;5.35;3.10;;;5.80;64.60;;;;;;5091047;28;20111;-72
2023/04/27 01:09:01;;;;;;;3.85;2.72;;;5.80;64.40;;;;;;5091265;28;20044;-72
2023/04/27 01:11:26;;;;;;;3.38;2.47;;;5.80;64.30;;;;;;5074379;28;20044;-72
2023/04/27 01:13:53;;;;;;;4.80;3.15;;;5.70;64.00;;;;;;5074376;28;20040;-72
2023/04/27 01:16:19;;;;;;;4.97;3.53;;;5.70;64.10;;;;;;5073905;28;20241;-72
2023/04/27 01:18:45;;;;;;;3.85;2.90;;;5.70;64.40;;;;;;5091098;28;20036;-72
2023/04/27 01:21:11;;;;;;;5.20;3.35;;;5.60;64.50;;;;;;5073300;28;20065;-72
2023/04/27 01:23:37;;;;;;;5.28;2.90;;;5.60;64.60;;;;;;5091154;28;20071;-72
2023/04/27 01:26:03;;;;;;;4.43;3.17;;;5.60;64.70;;;;;;5074249;28;20079;-72
2023/04/27 01:28:28;;;;;;;4.00;3.30;;;5.60;64.90;;;;;;5074421;28;20113;-71
2023/04/27 01:30:54;;;;;;;4.28;3.40;;;5.60;65.00;;;;;;5073455;28;20489;-71
2023/04/27 01:33:20;;;;;;;4.25;3.00;;;5.50;64.90;;;;;;5038674;28;20033;-72
2023/04/27 01:35:45;;;;;;;4.55;3.10;;;5.50;65.10;;;;;;5082907;28;20100;-71
2023/04/27 01:38:11;;;;;;;5.05;3.08;;;5.50;65.00;;;;;;5090796;28;20114;-71
2023/04/27 01:40:37;;;;;;;3.92;3.00;;;5.50;65.10;;;;;;5090773;28;20040;-71
2023/04/27 01:43:03;;;;;;;5.80;3.05;;;5.50;65.20;;;;;;5090305;28;20116;-72
2023/04/27 01:45:29;;;;;;;4.18;3.00;;;5.50;65.10;;;;;;5090517;28;20120;-72
2023/04/27 01:47:55;;;;;;;5.95;3.13;;;5.50;65.10;;;;;;5073563;28;20039;-73
2023/04/27 01:50:21;;;;;;;4.45;3.13;;;5.50;65.10;;;;;;5072708;28;20512;-72
2023/04/27 01:52:46;;;;;;;6.25;3.47;;;5.40;65.10;;;;;;5089309;28;20079;-72
2023/04/27 01:55:12;;;;;;;4.85;3.25;;;5.40;65.00;;;;;;5073872;28;20042;-72
2023/04/27 01:57:38;;;;;;;4.30;3.05;;;5.40;64.70;;;;;;5073273;28;20039;-72
2023/04/27 02:00:04;;;;;;;4.78;3.20;;;5.40;64.70;;;;;;5073746;28;20047;-72
2023/04/27 02:02:30;;;;;;;5.47;3.05;;;5.30;64.60;;;;;;5089647;28;20040;-72
2023/04/27 02:04:56;;;;;;;4.90;3.30;;;5.30;64.70;;;;;;5073432;28;20051;-72
2023/04/27 02:07:22;;;;;;;6.50;3.22;;;5.30;64.60;;;;;;5090604;28;20042;-72
2023/04/27 02:09:47;;;;;;;5.93;3.53;;;5.20;64.70;;;;;;5090350;28;20046;-72
2023/04/27 02:12:13;;;;;;;4.60;3.08;;;5.20;64.60;;;;;;5089965;28;20413;-72
2023/04/27 02:14:39;;;;;;;6.35;3.47;;;5.20;64.70;;;;;;5090125;28;20081;-72
2023/04/27 02:17:05;;;;;;;6.00;3.58;;;5.20;64.60;;;;;;5090105;28;20094;-72
2023/04/27 02:19:31;;;;;;;4.82;3.35;;;5.20;64.50;;;;;;5053149;28;20032;-72
2023/04/27 02:21:57;;;;;;;5.03;3.42;;;5.10;64.60;;;;;;5047308;28;20566;-72
2023/04/27 02:24:22;;;;;;;4.00;3.08;;;5.10;64.70;;;;;;5056491;28;20040;-72
2023/04/27 02:26:48;;;;;;;4.57;3.35;;;5.10;64.80;;;;;;5090453;28;20093;-72
2023/04/27 02:29:14;;;;;;;6.50;3.70;;;5.00;64.80;;;;;;5090001;28;20523;-72
2023/04/27 02:31:40;;;;;;;5.97;3.92;;;5.00;64.90;;;;;;5089863;28;20463;-72
2023/04/27 02:34:05;;;;;;;5.93;3.45;;;5.00;65.00;;;;;;5073428;28;20048;-72
2023/04/27 02:36:31;;;;;;;5.82;4.28;;;5.00;65.10;;;;;;5090004;28;20036;-72
2023/04/27 02:38:57;;;;;;;4.40;3.17;;;4.90;65.10;;;;;;5072974;28;20111;-72
2023/04/27 02:41:23;;;;;;;4.85;3.35;;;4.90;65.20;;;;;;5089595;28;20032;-72
2023/04/27 02:43:50;;;;;;;5.10;3.25;;;4.90;65.40;;;;;;5073318;28;20157;-72
2023/04/27 02:46:15;;;;;;;5.30;3.75;;;4.90;65.60;;;;;;5089899;28;20063;-73
2023/04/27 02:48:41;;;;;;;5.18;3.42;;;4.90;65.70;;;;;;5056388;28;20048;-72
2023/04/27 02:51:07;;;;;;;4.85;3.25;;;4.90;65.90;;;;;;5089491;28;20040;-72
2023/04/27 02:53:33;;;;;;;7.07;3.83;;;4.80;65.90;;;;;;5089367;28;20044;-72
2023/04/27 02:55:58;;;;;;;5.28;3.15;;;4.80;65.90;;;;;;5086373;28;20037;-72
2023/04/27 02:58:24;;;;;;;5.93;3.50;;;4.80;65.90;;;;;;5069692;28;20378;-72
2023/04/27 03:00:54;;;;;;;4.28;3.38;;;4.90;65.90;;;;;;5089667;28;20051;-72
2023/04/27 03:03:21;;;;;;;5.45;3.42;;;4.90;65.80;;;;;;5053420;28;20047;-72
2023/04/27 03:05:46;;;;;;;7.38;4.07;;;4.80;65.60;;;;;;5069792;28;20489;-72
2023/04/27 03:08:12;;;;;;;6.68;3.55;;;4.80;65.30;;;;;;5085900;28;20097;-72
2023/04/27 03:10:38;;;;;;;6.15;3.80;;;4.80;64.80;;;;;;5089378;28;20086;-72
2023/04/27 03:13:04;;;;;;;5.25;3.17;;;4.70;65.00;;;;;;5089489;28;20097;-72
2023/04/27 03:15:30;;;;;;;4.82;3.30;;;4.70;65.20;;;;;;5092801;28;20040;-73
2023/04/27 03:17:55;;;;;;;4.68;3.17;;;4.70;65.50;;;;;;5076638;28;20039;-75
2023/04/27 03:20:21;;;;;;;5.55;3.60;;;4.70;65.80;;;;;;5060150;28;20040;-76
2023/04/27 03:22:47;;;;;;;4.43;3.65;;;4.70;65.90;;;;;;5076777;28;20036;-76
2023/04/27 03:25:13;;;;;;;4.95;3.75;;;4.60;65.80;;;;;;5077027;28;20051;-76
2023/04/27 03:27:39;;;;;;;6.32;3.40;;;4.60;65.60;;;;;;5076939;28;20561;-76
2023/04/27 03:30:06;;;;;;;5.68;3.10;;;4.60;65.40;;;;;;5076847;28;20044;-76
2023/04/27 03:32:31;;;;;;;5.57;3.45;;;4.60;65.20;;;;;;5093592;28;20408;-76
2023/04/27 03:34:57;;;;;;;3.67;3.13;;;4.50;65.10;;;;;;5061789;28;20024;-76
2023/04/27 03:37:23;;;;;;;4.85;3.60;;;4.50;65.20;;;;;;5079589;28;20475;-76
2023/04/27 03:39:49;;;;;;;4.13;2.95;;;4.60;65.50;;;;;;5081978;28;20139;-76
2023/04/27 03:42:15;;;;;;;5.43;3.40;;;4.50;65.70;;;;;;5082874;28;20392;-76
2023/04/27 03:44:41;;;;;;;5.75;3.50;;;4.50;66.00;;;;;;5094109;28;20119;-76
2023/04/27 03:47:08;;;;;;;6.88;4.05;;;4.50;66.20;;;;;;5077326;28;20044;-76
2023/04/27 03:49:35;;;;;;;6.60;4.18;;;4.40;66.20;;;;;;5076907;28;20039;-76
2023/04/27 03:52:01;;;;;;;5.90;4.25;;;4.50;66.20;;;;;;5064465;28;20052;-76
2023/04/27 03:54:26;;;;;;;6.47;4.07;;;4.50;66.10;;;;;;5090266;28;20043;-76
2023/04/27 03:56:52;;;;;;;5.47;3.58;;;4.40;66.00;;;;;;5073331;28;20041;-76
2023/04/27 03:59:18;;;;;;;5.07;3.13;;;4.40;66.00;;;;;;5056712;28;20045;-76
2023/04/27 04:01:43;;;;;;;4.80;3.90;;;4.40;66.20;;;;;;5089838;28;20118;-76
2023/04/27 04:04:10;;;;;;;4.50;3.47;;;4.40;66.40;;;;;;5088930;28;20036;-76
2023/04/27 04:06:36;;;;;;;4.70;3.38;;;4.40;66.50;;;;;;5094355;28;20425;-76
2023/04/27 04:09:02;;;;;;;4.28;3.53;;;4.40;66.60;;;;;;5080440;28;20044;-77
2023/04/27 04:11:28;;;;;;;5.25;3.58;;;4.40;66.70;;;;;;5095301;28;20075;-75
2023/04/27 04:13:54;;;;;;;5.78;3.80;;;4.40;66.70;;;;;;5093253;28;20526;-76
2023/04/27 04:16:20;;;;;;;6.15;4.13;;;4.40;66.90;;;;;;5093124;28;20039;-76
2023/04/27 04:18:45;;;;;;;5.47;4.03;;;4.40;66.90;;;;;;5092433;28;20032;-76
2023/04/27 04:21:11;;;;;;;5.47;3.83;;;4.40;66.90;;;;;;5075833;28;20044;-76
2023/04/27 04:23:37;;;;;;;5.28;3.65;;;4.40;66.90;;;;;;5076271;28;20134;-75
2023/04/27 04:26:03;;;;;;;5.63;3.50;;;4.40;67.00;;;;;;5091700;28;20142;-75
2023/04/27 04:28:29;;;;;;;5.38;3.78;;;4.40;67.10;;;;;;5092685;28;20108;-76
2023/04/27 04:30:55;;;;;;;5.10;3.58;;;4.40;67.10;;;;;;5092079;28;20507;-76
2023/04/27 04:33:21;;;;;;;5.13;3.58;;;4.40;66.90;;;;;;5092185;28;20118;-76
2023/04/27 04:35:47;;;;;;;5.72;3.70;;;4.40;66.70;;;;;;5075412;28;20036;-76
2023/04/27 04:38:13;;;;;;;4.85;3.50;;;4.40;66.70;;;;;;5060178;28;20041;-76
2023/04/27 04:40:39;;;;;;;5.88;3.88;;;4.40;66.70;;;;;;5086831;28;20081;-77
2023/04/27 04:43:05;;;;;;;5.45;3.55;;;4.40;66.60;;;;;;5059308;28;20338;-77
2023/04/27 04:45:31;;;;;;;6.78;4.30;;;4.30;66.40;;;;;;5074829;28;20082;-76
2023/04/27 04:47:57;;;;;;;6.32;4.03;;;4.40;66.30;;;;;;5092185;28;20101;-76
2023/04/27 04:50:23;;;;;;;6.30;4.63;;;4.40;66.30;;;;;;5058513;28;20062;-77
2023/04/27 04:52:49;;;;;;;7.60;6.32;;;4.30;66.40;;;;;;5074992;28;20378;-75
2023/04/27 04:55:15;;;;;;;14.45;12.80;;;4.40;66.90;;;;;;5092497;28;20370;-77
2023/04/27 04:57:40;;;;;;;12.73;8.15;;;4.40;67.20;;;;;;5092347;28;20461;-77
2023/04/27 05:00:11;;;;;;;10.93;7.05;;;4.50;67.30;;;;;;5091878;28;20356;-76
2023/04/27 05:02:37;;;;;;;6.53;5.18;;;4.60;67.30;;;;;;5075909;28;20497;-76
2023/04/27 05:05:03;;;;;;;8.75;5.32;;;4.80;67.30;;;;;;5075561;28;20040;-76
2023/04/27 05:07:29;;;;;;;8.02;4.72;;;4.90;67.20;;;;;;5091988;28;20583;-76
2023/04/27 05:09:54;;;;;;;7.68;4.95;;;5.10;67.00;;;;;;5074675;28;20064;-76
2023/04/27 05:12:20;;;;;;;7.53;4.82;;;5.30;66.80;;;;;;5054285;28;20123;-76
2023/04/27 05:14:47;;;;;;;7.07;4.75;;;5.40;66.20;;;;;;5071710;28;20044;-76
2023/04/27 05:17:13;;;;;;;7.10;4.80;;;5.60;65.80;;;;;;5054826;28;20040;-76
2023/04/27 05:19:38;;;;;;;6.63;4.45;;;5.70;65.20;;;;;;5039636;28;20119;-76
2023/04/27 05:22:04;;;;;;;5.93;4.60;;;5.80;64.70;;;;;;5091700;28;20047;-76
2023/04/27 05:24:30;;;;;;;10.02;5.43;;;5.80;64.40;;;;;;5058109;28;20488;-76
2023/04/27 05:26:55;;;;;;;6.30;4.72;;;5.90;64.40;;;;;;5074500;28;20062;-76
2023/04/27 05:29:21;;;;;;;6.40;4.75;;;5.90;64.30;;;;;;5074972;28;20078;-76
2023/04/27 05:31:47;;;;;;;9.00;4.95;;;6.00;64.20;;;;;;5074127;28;20043;-76
2023/04/27 05:34:13;;;;;;;9.45;5.25;;;6.10;64.30;;;;;;5074202;28;20082;-76
2023/04/27 05:36:39;;;;;;;8.80;4.90;;;6.10;64.40;;;;;;5091359;28;20058;-76
2023/04/27 05:39:05;;;;;;;6.72;5.32;;;6.20;64.40;;;;;;5091055;28;20043;-76
2023/04/27 05:41:32;;;;;;;7.63;4.80;;;6.30;64.60;;;;;;5091136;28;20044;-76
2023/04/27 05:43:57;;;;;;;11.93;6.22;;;6.30;64.90;;;;;;5091207;28;20056;-76
2023/04/27 05:46:23;;;;;;;7.43;4.80;;;6.40;65.20;;;;;;5090959;28;20078;-76
2023/04/27 05:48:49;;;;;;;9.30;5.00;;;6.70;65.30;;;;;;5091489;28;20069;-76
2023/04/27 05:51:15;;;;;;;6.82;5.13;;;6.80;65.00;;;;;;5074457;28;20035;-76
2023/04/27 05:53:41;;;;;;;8.15;5.63;;;7.00;64.90;;;;;;5074222;28;20123;-76
2023/04/27 05:56:07;;;;;;;7.60;5.00;;;7.30;65.00;;;;;;5091027;28;20044;-76
2023/04/27 05:58:33;;;;;;;7.18;4.50;;;7.70;64.60;;;;;;5074106;28;20445;-76
2023/04/27 06:01:00;;;;;;;6.95;4.93;;;8.10;64.00;;;;;;5091071;28;20078;-76
2023/04/27 06:03:26;;;;;;;6.72;5.07;;;8.50;63.10;;;;;;5091180;28;20040;-76
2023/04/27 06:05:56;;;;;;;9.20;5.05;;;8.90;62.30;;;;;;5073982;28;20054;-76
2023/04/27 06:08:22;;;;;;;6.45;4.85;;;9.40;61.40;;;;;;5075173;28;20047;-75
2023/04/27 06:10:50;;;;;;;9.90;5.25;;;9.80;60.60;;;;;;5059960;28;20477;-74
2023/04/27 06:13:16;;;;;;;6.60;4.88;;;10.20;59.80;;;;;;5056526;28;20041;-80
2023/04/27 06:15:43;;;;;;;8.48;4.88;;;10.70;59.00;;;;;;5069048;28;20456;-81
2023/04/27 06:18:09;;;;;;;6.00;4.10;;;11.10;58.20;;;;;;5093679;28;20044;-81
2023/04/27 06:20:35;;;;;;;5.60;4.28;;;11.70;57.70;;;;;;5093392;28;20136;-81
2023/04/27 06:23:01;;;;;;;6.72;4.18;;;12.10;56.50;;;;;;5093976;28;20040;-81
2023/04/27 06:25:27;;;;;;;5.53;3.55;;;12.50;55.10;;;;;;5076009;28;20044;-79
2023/04/27 06:27:57;;;;;;;6.82;3.70;;;12.80;54.00;;;;;;5093000;28;20189;-79
2023/04/27 06:30:23;;;;;;;8.30;4.35;;;13.00;53.00;;;;;;5092179;28;20044;-79
2023/04/27 06:32:50;;;;;;;5.25;3.38;;;13.20;52.30;;;;;;5075940;28;20056;-79
2023/04/27 06:35:16;;;;;;;5.63;3.70;;;13.40;52.00;;;;;;5093017;28;20047;-79
2023/04/27 06:37:43;;;;;;;6.90;4.53;;;13.70;51.70;;;;;;5076082;28;20079;-79
2023/04/27 06:40:09;;;;;;;5.97;4.18;;;14.00;51.60;;;;;;5093709;28;20123;-79
2023/04/27 06:42:36;;;;;;;6.75;4.20;;;14.30;50.50;;;;;;5075543;28;20101;-79
2023/04/27 06:45:03;;;;;;;6.35;3.80;;;14.60;50.40;;;;;;5075803;28;20036;-79
2023/04/27 06:47:29;;;;;;;6.45;3.65;;;15.00;50.30;;;;;;5075712;28;20501;-79
2023/04/27 06:49:55;;;;;;;5.50;3.55;;;15.40;48.90;;;;;;5095708;28;20078;-79
2023/04/27 06:52:21;;;;;;;6.53;3.60;;;15.80;47.70;;;;;;5079440;28;20040;-79
2023/04/27 06:54:47;;;;;;;6.90;3.42;;;16.10;46.80;;;;;;5096753;28;20040;-79
2023/04/27 06:57:12;;;;;;;4.68;3.05;;;16.50;46.00;;;;;;5095593;28;20032;-79
2023/04/27 06:59:38;;;;;;;5.63;3.08;;;16.80;44.50;;;;;;5079047;28;20048;-79
2023/04/27 07:02:04;;;;;;;4.65;2.88;;;16.90;44.10;;;;;;5062510;28;20119;-79
2023/04/27 07:04:30;;;;;;;8.25;2.78;;;17.10;43.40;;;;;;5078976;28;20044;-79
2023/04/27 07:06:56;;;;;;;4.13;2.90;;;17.20;42.00;;;;;;5079201;28;20119;-79
2023/04/27 07:09:22;;;;;;;7.43;3.00;;;17.40;42.30;;;;;;5096685;28;20200;-79
2023/04/27 07:11:47;;;;;;;3.90;2.60;;;17.60;41.00;;;;;;5078486;28;20036;-79
2023/04/27 07:14:13;;;;;;;5.03;2.97;;;17.80;39.80;;;;;;5096145;28;20046;-79
2023/04/27 07:16:39;;;;;;;5.45;2.83;;;17.80;39.90;;;;;;5095806;28;20486;-79
2023/04/27 07:19:04;;;;;;;3.97;2.20;;;18.00;40.00;;;;;;5095323;28;20058;-79
2023/04/27 07:21:30;;;;;;;3.63;2.22;;;18.20;39.10;;;;;;5096554;28;20036;-79
2023/04/27 07:23:56;;;;;;;5.75;2.38;;;18.20;38.50;;;;;;5096876;28;20484;-79
2023/04/27 07:26:22;;;;;;;6.22;2.00;;;18.30;38.60;;;;;;5095396;28;20042;-79
2023/04/27 07:28:49;;;;;;;4.25;2.17;;;18.40;38.50;;;;;;5094456;28;20051;-80
2023/04/27 07:31:15;;;;;;;5.43;2.83;;;18.50;38.10;;;;;;5095843;28;20047;-79
2023/04/27 07:33:41;;;;;;;4.47;2.00;;;18.70;37.70;;;;;;5094732;28;20047;-80
2023/04/27 07:36:09;;;;;;;3.53;1.90;;;18.80;37.20;;;;;;5095818;28;20047;-80
2023/04/27 07:38:37;;;;;;;2.67;1.60;;;19.00;37.00;;;;;;5095493;28;20396;-80
2023/04/27 07:41:04;;;;;;;10.38;2.33;;;19.00;36.60;;;;;;5077874;28;20040;-80
2023/04/27 07:43:34;;;;;;;6.80;1.90;;;19.10;36.10;;;;;;5077672;28;20044;-79
2023/04/27 07:46:00;;;;;;;4.20;1.50;;;19.10;35.70;;;;;;5094186;28;20067;-79
2023/04/27 07:48:27;;;;;;;4.35;1.45;;;19.00;35.00;;;;;;5044265;28;20093;-80
2023/04/27 07:50:53;;;;;;;4.70;2.05;;;18.90;34.90;;;;;;5094608;28;20048;-79
2023/04/27 07:53:19;;;;;;;4.18;1.88;;;18.80;34.90;;;;;;5094156;28;20059;-79
2023/04/27 07:55:45;;;;;;;5.07;2.00;;;18.70;34.40;;;;;;5094111;28;20121;-79
2023/04/27 07:58:11;;;;;;;4.95;1.58;;;18.70;34.50;;;;;;5076987;28;20076;-79
2023/04/27 08:00:37;;;;;;;3.60;1.60;;;18.70;34.90;;;;;;5094138;28;20535;-79
2023/04/27 08:03:03;;;;;;;3.95;1.70;;;18.70;35.10;;;;;;5076958;28;20071;-79
2023/04/27 08:05:28;;;;;;;2.83;1.80;;;18.70;34.90;;;;;;5077035;28;20401;-79
2023/04/27 08:07:54;;;;;;;5.40;2.13;;;18.80;35.00;;;;;;5093653;28;20039;-79
2023/04/27 08:10:20;;;;;;;2.45;1.35;;;18.80;34.60;;;;;;5077058;28;20077;-79
2023/04/27 08:12:46;;;;;;;4.00;1.17;;;18.80;34.70;;;;;;5092624;28;20131;-80
2023/04/27 08:15:12;;;;;;;4.20;1.23;;;18.70;34.20;;;;;;5045011;28;20044;-80
2023/04/27 08:17:40;;;;;;;2.50;1.15;;;18.80;34.40;;;;;;5059577;28;20478;-80
2023/04/27 08:20:10;;;;;;;3.00;1.30;;;18.90;34.20;;;;;;5094058;28;20028;-80
2023/04/27 08:22:36;;;;;;;2.50;1.20;;;19.00;33.80;;;;;;5094099;28;20438;-79
2023/04/27 08:25:03;;;;;;;3.53;1.20;;;19.10;34.20;;;;;;5093559;28;20408;-80
2023/04/27 08:27:30;;;;;;;3.35;1.70;;;19.20;33.70;;;;;;5076822;28;20047;-80
2023/04/27 08:29:55;;;;;;;3.90;1.55;;;19.30;33.80;;;;;;5076540;28;20127;-79
2023/04/27 08:32:21;;;;;;;3.83;1.67;;;19.40;33.70;;;;;;5093527;28;20174;-79
2023/04/27 08:34:47;;;;;;;2.65;1.33;;;19.50;33.50;;;;;;5076702;28;20036;-79
2023/04/27 08:37:13;;;;;;;4.15;1.52;;;19.60;33.30;;;;;;5076425;28;20105;-79
2023/04/27 08:39:39;;;;;;;4.07;1.77;;;19.60;33.50;;;;;;5093367;28;20032;-79
2023/04/27 08:42:13;;;;;;;2.88;1.55;;;19.70;33.50;;;;;;5093412;28;20048;-79
2023/04/27 08:44:40;;;;;;;4.00;1.77;;;19.90;33.40;;;;;;5073216;28;20076;-79
2023/04/27 08:47:07;;;;;;;3.40;1.50;;;20.00;33.10;;;;;;5072962;28;20072;-79
2023/04/27 08:49:34;;;;;;;4.50;1.40;;;20.00;32.70;;;;;;5073084;28;20040;-79
2023/04/27 08:52:00;;;;;;;4.35;1.58;;;20.10;31.60;;;;;;5056222;28;20050;-79
2023/04/27 08:54:26;;;;;;;5.65;1.70;;;20.00;31.20;;;;;;5072837;28;20119;-79
2023/04/27 08:56:52;;;;;;;4.60;1.75;;;20.00;32.00;;;;;;5056484;28;20147;-79
2023/04/27 08:59:18;;;;;;;3.47;2.00;;;20.00;32.40;;;;;;5072953;28;20051;-80
2023/04/27 09:01:48;;;;;;;4.72;2.30;;;20.00;32.70;;;;;;5072881;28;20482;-79
2023/04/27 09:04:14;;;;;;;4.25;2.08;;;20.10;32.60;;;;;;5072673;28;20032;-79
2023/04/27 09:06:40;;;;;;;4.45;1.75;;;20.10;32.20;;;;;;5073011;28;20462;-79
2023/04/27 09:09:06;;;;;;;6.05;1.98;;;20.20;32.40;;;;;;5039266;28;20120;-79
2023/04/27 09:11:37;;;;;;;2.88;2.03;;;20.20;32.50;;;;;;5055556;28;20040;-81
2023/04/27 09:14:20;;;;;;;4.55;2.30;;;20.30;32.30;;;;;;5055957;28;20037;-79
2023/04/27 09:16:56;;;;;;;5.70;2.22;;;20.40;31.60;;;;;;5072532;28;20033;-79
2023/04/27 09:19:26;;;;;;;3.42;1.60;;;20.40;32.10;;;;;;5064096;28;20117;-77
2023/04/27 09:22:09;;;;;;;3.47;1.75;;;20.40;31.80;;;;;;5092119;28;20047;-76
2023/04/27 09:24:36;;;;;;;2.88;2.05;;;20.40;31.60;;;;;;5063266;28;20032;-77
2023/04/27 09:27:03;;;;;;;4.07;1.88;;;20.40;31.20;;;;;;5092247;28;20040;-76
2023/04/27 09:29:37;;;;;;;3.60;1.90;;;20.30;31.90;;;;;;5092295;28;20040;-77
2023/04/27 09:32:17;;;;;;;3.40;1.42;;;20.30;32.10;;;;;;5091972;28;20090;-77
2023/04/27 09:34:44;;;;;;;4.53;2.00;;;20.30;32.50;;;;;;5092197;28;20043;-77
2023/04/27 09:37:10;;;;;;;4.93;2.30;;;20.30;33.00;;;;;;5092178;28;20044;-77
2023/04/27 09:39:36;;;;;;;3.45;1.65;;;20.40;32.30;;;;;;5102510;28;20084;-77
2023/04/27 09:42:03;;;;;;;3.88;1.88;;;20.40;31.80;;;;;;5061536;28;20047;-75
2023/04/27 09:44:30;;;;;;;4.28;1.90;;;20.50;32.00;;;;;;5091821;28;20044;-77
2023/04/27 09:46:58;;;;;;;4.07;2.20;;;20.50;31.10;;;;;;5091044;28;20511;-76
2023/04/27 09:49:26;;;;;;;5.05;2.10;;;20.40;31.30;;;;;;5091130;28;20507;-76
2023/04/27 09:51:54;;;;;;;5.13;2.65;;;20.40;31.30;;;;;;5091292;28;20036;-76
2023/04/27 09:54:24;;;;;;;7.32;5.95;;;20.30;30.80;;;;;;5090983;28;20040;-75
2023/04/27 09:57:17;;;;;;;5.30;2.13;;;20.20;31.00;;;;;;5091911;28;20048;-76
2023/04/27 10:00:09;;;;;;;7.45;1.98;;;20.10;32.10;;;;;;5074259;28;20098;-76
2023/04/27 10:03:01;;;;;;;8.40;2.50;;;20.10;32.90;;;;;;5070873;28;20374;-76
2023/04/27 10:05:33;;;;;;;4.13;2.20;;;20.10;32.40;;;;;;5050639;28;20181;-76
2023/04/27 10:07:59;;;;;;;4.75;2.30;;;20.20;32.70;;;;;;5082411;28;20532;-76
2023/04/27 10:10:25;;;;;;;3.40;2.00;;;20.20;32.20;;;;;;5075174;28;20039;-79
2023/04/27 10:12:56;;;;;;;9.77;2.85;;;20.30;32.30;;;;;;5074458;28;20127;-77
2023/04/27 10:15:27;;;;;;;5.25;2.85;;;20.30;32.00;;;;;;5074860;28;20047;-77
2023/04/27 10:17:54;;;;;;;8.57;3.13;;;20.30;31.20;;;;;;5091438;28;20128;-74
2023/04/27 10:20:35;;;;;;;4.47;2.28;;;20.40;31.70;;;;;;5091260;28;20050;-77
2023/04/27 10:23:01;;;;;;;5.72;2.80;;;20.40;32.00;;;;;;5075080;28;20082;-84
2023/04/27 10:25:39;;;;;;;7.10;2.65;;;20.40;31.70;;;;;;5063334;28;20493;-85
2023/04/27 10:28:06;;;;;;;4.18;2.72;;;20.40;31.60;;;;;;5079076;28;20507;-83
2023/04/27 10:30:37;;;;;;;4.78;2.90;;;20.40;31.20;;;;;;5079018;28;20132;-85
2023/04/27 10:33:08;;;;;;;4.57;2.90;;;20.40;31.30;;;;;;5096010;28;20474;-84
2023/04/27 10:35:39;;;;;;;5.15;2.83;;;20.40;31.60;;;;;;5079069;28;20040;-85
2023/04/27 10:38:13;;;;;;;4.63;2.55;;;20.40;31.50;;;;;;5096233;28;20392;-83
2023/04/27 10:40:39;;;;;;;5.10;2.78;;;20.40;31.50;;;;;;5079250;28;20458;-83
2023/04/27 10:43:12;;;;;;;6.38;3.40;;;20.40;31.50;;;;;;5078995;28;20071;-82
2023/04/27 10:45:39;;;;;;;4.37;2.80;;;20.50;31.80;;;;;;5095043;28;20056;-83
2023/04/27 10:48:05;;;;;;;5.30;2.70;;;20.50;31.80;;;;;;5061461;28;20658;-83
2023/04/27 10:50:30;;;;;;;5.78;3.03;;;20.50;32.50;;;;;;5078809;28;20119;-82
2023/04/27 10:53:04;;;;;;;6.28;2.85;;;20.50;31.90;;;;;;5095390;28;20438;-83
2023/04/27 10:55:30;;;;;;;3.95;2.85;;;20.50;32.00;;;;;;5095764;28;20392;-85
2023/04/27 10:57:56;;;;;;;4.28;2.38;;;20.50;31.80;;;;;;5053485;28;20040;-85
2023/04/27 11:00:34;;;;;;;6.85;3.13;;;20.50;32.40;;;;;;5058377;28;20119;-85
2023/04/27 11:03:14;;;;;;;5.78;2.90;;;20.50;31.80;;;;;;5058548;28;20492;-82
2023/04/27 11:05:42;;;;;;;4.45;2.88;;;20.60;32.00;;;;;;5075642;28;20066;-82
2023/04/27 11:08:10;;;;;;;6.18;2.60;;;20.50;31.70;;;;;;5076748;28;20040;-86
2023/04/27 11:10:41;;;;;;;5.40;3.05;;;20.60;31.50;;;;;;5078931;28;20036;-83
2023/04/27 11:13:15;;;;;;;5.80;3.22;;;20.50;31.00;;;;;;5095131;28;20047;-83
2023/04/27 11:15:47;;;;;;;5.00;3.20;;;20.50;31.00;;;;;;5078286;28;20039;-82
2023/04/27 11:18:14;;;;;;;4.00;2.88;;;20.50;31.40;;;;;;5077978;28;20070;-83
2023/04/27 11:20:40;;;;;;;5.30;3.47;;;20.50;31.30;;;;;;5078497;28;20126;-82
2023/04/27 11:23:09;;;;;;;6.13;3.50;;;20.50;30.90;;;;;;5094895;28;20040;-83
2023/04/27 11:25:36;;;;;;;6.35;3.55;;;20.50;31.60;;;;;;5078024;28;20044;-83
2023/04/27 11:28:03;;;;;;;4.40;3.10;;;20.50;30.90;;;;;;5061656;28;20476;-82
2023/04/27 11:30:30;;;;;;;5.22;3.17;;;20.40;30.90;;;;;;5062143;28;20048;-83
2023/04/27 11:32:56;;;;;;;5.30;3.20;;;20.40;31.10;;;;;;5061685;28;20425;-82
2023/04/27 11:35:34;;;;;;;6.13;3.38;;;20.30;31.30;;;;;;5061101;28;20075;-84
2023/04/27 11:38:00;;;;;;;6.82;3.95;;;20.30;31.70;;;;;;5094471;28;20400;-83
2023/04/27 11:40:27;;;;;;;4.68;3.00;;;20.30;31.80;;;;;;5094252;28;20032;-83
2023/04/27 11:42:58;;;;;;;4.97;3.05;;;20.30;31.50;;;;;;5061512;28;20042;-84
2023/04/27 11:45:26;;;;;;;5.25;3.30;;;20.30;31.70;;;;;;5061180;28;20075;-83
2023/04/27 11:47:52;;;;;;;5.57;3.80;;;20.30;32.10;;;;;;5077538;28;20398;-83
2023/04/27 11:50:18;;;;;;;6.22;3.67;;;20.30;31.90;;;;;;5061005;28;20040;-83
2023/04/27 11:52:47;;;;;;;6.50;3.75;;;20.30;31.30;;;;;;5077521;28;20032;-83
2023/04/27 11:55:14;;;;;;;5.68;3.83;;;20.30;30.70;;;;;;5077319;28;20039;-84
2023/04/27 11:57:41;;;;;;;5.50;3.40;;;20.20;30.70;;;;;;5077680;28;20173;-84
2023/04/27 12:00:10;;;;;;;5.72;3.50;;;20.30;31.20;;;;;;5077741;28;20370;-83
2023/04/27 12:02:37;;;;;;;7.28;3.70;;;20.30;31.50;;;;;;5094347;28;20048;-84
2023/04/27 12:05:03;;;;;;;5.32;3.50;;;20.30;31.10;;;;;;5094429;28;20047;-84
2023/04/27 12:07:29;;;;;;;9.18;3.80;;;20.30;31.10;;;;;;5061062;28;20044;-85
2023/04/27 12:09:55;;;;;;;5.55;3.35;;;20.20;31.10;;;;;;5059877;28;20568;-78
2023/04/27 12:12:22;;;;;;;5.25;3.20;;;20.20;31.00;;;;;;5077622;28;20059;-85
2023/04/27 12:14:49;;;;;;;7.53;4.00;;;20.10;31.00;;;;;;5094286;28;20032;-80
2023/04/27 12:17:15;;;;;;;4.32;2.90;;;20.10;31.10;;;;;;5093664;28;20038;-79
2023/04/27 12:19:41;;;;;;;6.05;3.80;;;20.00;30.90;;;;;;5076656;28;20036;-82
2023/04/27 12:22:07;;;;;;;6.85;3.35;;;19.90;31.30;;;;;;5060301;28;20464;-82
2023/04/27 12:24:33;;;;;;;5.28;3.30;;;19.90;31.80;;;;;;5093994;28;20039;-82
2023/04/27 12:27:00;;;;;;;5.28;3.55;;;19.80;31.60;;;;;;5076731;28;20119;-81
2023/04/27 12:29:26;;;;;;;5.68;3.75;;;19.70;31.70;;;;;;5094099;28;20090;-86
2023/04/27 12:31:52;;;;;;;5.18;3.05;;;19.60;32.10;;;;;;5044130;28;20481;-86
2023/04/27 12:34:18;;;;;;;5.35;3.25;;;19.60;31.70;;;;;;5057204;28;20115;-83
2023/04/27 12:36:43;;;;;;;5.25;2.85;;;19.50;31.70;;;;;;5073506;28;20068;-87
2023/04/27 12:39:18;;;;;;;5.18;3.35;;;19.50;31.50;;;;;;5056605;28;20098;-85
2023/04/27 12:41:45;;;;;;;6.20;3.00;;;19.50;31.30;;;;;;5056493;28;20033;-86
2023/04/27 12:44:12;;;;;;;5.22;3.20;;;19.40;31.10;;;;;;5073161;28;20098;-85
2023/04/27 12:46:39;;;;;;;5.30;3.35;;;19.30;31.50;;;;;;5055506;28;20136;-86
2023/04/27 12:49:05;;;;;;;4.95;3.03;;;19.30;31.70;;;;;;5076092;28;20044;-85